Time;durP1;ratioP1;P1;durP2;ratioP2;P2;SDS_P1;SDS_P2;PMS_P1;PMS_P2;Temp;Humidity;BMP_temperature;BMP_pressure;BME280_temperature;BME280_humidity;BME280_pressure;Samples;Min_cycle;Max_cycle;Signal;HPM_P1;HPM_P2
2021/07/25 00:00:41;;;;;;;12.10;8.35;;;;;;;16.81;75.14;97118.41;5105316;28;20056;-64
2021/07/25 00:03:09;;;;;;;10.48;7.85;;;;;;;16.82;74.99;97114.41;5105270;28;20264;-62
2021/07/25 00:05:39;;;;;;;9.90;7.18;;;;;;;16.70;75.29;97114.88;5106751;27;20137;-62
2021/07/25 00:08:11;;;;;;;10.27;7.55;;;;;;;16.48;76.75;97117.81;5105717;28;20426;-62
2021/07/25 00:10:48;;;;;;;11.35;7.32;;;;;;;16.14;76.79;97111.13;5106559;28;20536;-62
2021/07/25 00:13:16;;;;;;;10.55;7.82;;;;;;;15.87;77.44;97026.19;5106523;28;20070;-61
2021/07/25 00:15:44;;;;;;;10.65;7.13;;;;;;;16.35;76.80;97102.66;5104632;28;20071;-61
2021/07/25 00:18:12;;;;;;;12.50;7.32;;;;;;;16.34;76.64;97084.25;5105096;28;20056;-61
2021/07/25 00:20:39;;;;;;;9.38;7.47;;;;;;;16.26;76.64;97082.72;5103505;28;20456;-62
2021/07/25 00:23:06;;;;;;;10.27;7.78;;;;;;;16.30;76.72;97086.28;5105287;28;20063;-61
2021/07/25 00:25:34;;;;;;;11.02;7.65;;;;;;;16.42;77.45;97113.78;5106564;28;20055;-62
2021/07/25 00:28:02;;;;;;;11.45;7.85;;;;;;;16.44;77.40;97117.00;5104945;28;20069;-62
2021/07/25 00:30:29;;;;;;;13.77;7.68;;;;;;;16.45;77.37;97110.19;5106584;28;20060;-63
2021/07/25 00:32:55;;;;;;;9.93;7.05;;;;;;;16.02;77.93;97066.84;5104416;28;20055;-61
2021/07/25 00:35:22;;;;;;;13.57;7.85;;;;;;;15.77;78.10;97035.44;5104725;28;20067;-62
2021/07/25 00:37:49;;;;;;;10.55;7.95;;;;;;;15.89;78.50;97073.28;5104944;28;20060;-61
2021/07/25 00:40:34;;;;;;;10.30;7.78;;;;;;;16.28;78.04;97102.66;5106235;28;20112;-62
2021/07/25 00:43:01;;;;;;;10.88;7.45;;;;;;;16.26;78.14;97119.06;5104968;28;20051;-62
2021/07/25 00:45:28;;;;;;;8.88;7.07;;;;;;;16.12;79.04;97126.72;5104570;28;20056;-62
2021/07/25 00:47:55;;;;;;;11.48;7.68;;;;;;;16.15;79.15;97115.53;5105520;28;20067;-61
2021/07/25 00:50:22;;;;;;;11.65;7.28;;;;;;;16.09;79.64;97125.50;5104391;28;20054;-62
2021/07/25 00:52:50;;;;;;;10.48;7.43;;;;;;;16.08;79.76;97121.13;5104028;28;20051;-62
2021/07/25 00:55:18;;;;;;;12.35;8.18;;;;;;;16.08;80.02;97126.72;5105918;28;20143;-61
2021/07/25 00:57:45;;;;;;;11.18;7.60;;;;;;;15.70;80.01;97085.72;5106172;28;20048;-63
2021/07/25 01:00:13;;;;;;;10.82;7.68;;;;;;;15.34;80.20;97008.78;5104719;28;20254;-61
2021/07/25 01:03:02;;;;;;;8.77;6.93;;;;;;;15.96;80.03;97112.38;5105020;28;20056;-63
2021/07/25 01:06:18;;;;;;;12.75;8.40;;;;;;;15.97;79.89;97109.19;5104159;28;20121;-62
2021/07/25 01:08:52;;;;;;;10.05;7.28;;;;;;;16.08;79.25;97098.75;5074309;28;20059;-62
2021/07/25 01:11:19;;;;;;;8.63;6.95;;;;;;;16.02;79.14;97089.22;5105461;28;20059;-62
2021/07/25 01:13:49;;;;;;;8.18;7.38;;;;;;;16.20;78.70;97101.09;5103773;28;20047;-62
2021/07/25 01:16:19;;;;;;;9.93;7.10;;;;;;;16.15;79.19;97107.13;5105317;28;20055;-62
2021/07/25 01:18:47;;;;;;;9.75;7.72;;;;;;;15.77;78.70;97038.22;5104741;28;20066;-63
2021/07/25 01:21:16;;;;;;;12.27;7.88;;;;;;;16.17;79.17;97101.91;5103708;28;20047;-61
2021/07/25 01:23:43;;;;;;;10.95;8.23;;;;;;;16.23;78.92;97108.69;5103680;28;20051;-63
2021/07/25 01:26:12;;;;;;;15.00;8.77;;;;;;;15.75;81.22;97113.22;5104765;28;20058;-62
2021/07/25 01:28:43;;;;;;;15.82;8.45;;;;;;;15.39;84.02;97122.84;5104042;28;20062;-60
2021/07/25 01:31:18;;;;;;;13.90;8.43;;;;;;;15.42;84.09;97124.84;5103579;28;20259;-61
2021/07/25 01:33:48;;;;;;;14.85;9.13;;;;;;;15.54;83.70;97138.38;5105536;28;20128;-61
2021/07/25 01:36:17;;;;;;;28.73;11.18;;;;;;;15.37;83.21;97124.41;5103240;28;20059;-61
2021/07/25 01:38:44;;;;;;;10.43;7.40;;;;;;;15.30;83.50;97125.19;5103396;28;20056;-60
2021/07/25 01:41:17;;;;;;;15.88;8.88;;;;;;;15.01;83.33;97101.28;5104608;28;20066;-60
2021/07/25 01:43:47;;;;;;;13.10;8.33;;;;;;;15.12;83.20;97085.34;5104645;28;20058;-62
2021/07/25 01:46:14;;;;;;;12.07;8.45;;;;;;;15.13;83.23;97098.09;5103022;28;20051;-63
2021/07/25 01:48:44;;;;;;;10.85;8.82;;;;;;;15.02;82.15;97033.13;5104246;28;20079;-61
2021/07/25 01:51:12;;;;;;;12.43;7.68;;;;;;;15.17;81.51;97054.25;5104632;28;20066;-59
2021/07/25 01:53:39;;;;;;;9.85;7.53;;;;;;;15.49;81.97;97110.88;5103464;28;20082;-60
2021/07/25 01:56:07;;;;;;;10.27;7.30;;;;;;;15.58;82.15;97125.22;5103159;28;20058;-60
2021/07/25 01:58:34;;;;;;;11.07;7.00;;;;;;;15.55;82.04;97131.63;5102977;28;20062;-61
2021/07/25 02:01:00;;;;;;;10.77;7.80;;;;;;;15.61;81.43;97130.00;5103862;28;20044;-61
2021/07/25 02:03:31;;;;;;;11.23;8.40;;;;;;;15.61;81.31;97127.22;5102684;28;20051;-62
2021/07/25 02:05:58;;;;;;;12.07;8.02;;;;;;;15.50;81.63;97129.22;5099634;28;20063;-62
2021/07/25 02:08:24;;;;;;;13.90;7.88;;;;;;;15.58;81.12;97119.66;5102416;28;20514;-61
2021/07/25 02:10:52;;;;;;;9.88;7.80;;;;;;;15.67;81.09;97122.00;5103085;28;20426;-62
2021/07/25 02:13:21;;;;;;;11.02;7.60;;;;;;;15.78;80.19;97126.38;5102883;28;20083;-60
2021/07/25 02:15:49;;;;;;;11.43;7.40;;;;;;;15.72;80.92;97130.00;5102840;28;20144;-60
2021/07/25 02:18:16;;;;;;;9.70;7.72;;;;;;;15.53;81.64;97139.59;5102722;28;20054;-60
2021/07/25 02:20:43;;;;;;;10.23;7.13;;;;;;;15.07;81.55;97082.97;5102610;28;20065;-60
2021/07/25 02:23:10;;;;;;;13.55;7.53;;;;;;;15.03;81.47;97071.00;5104378;28;20438;-60
2021/07/25 02:25:38;;;;;;;11.32;7.38;;;;;;;15.32;82.19;97133.97;5102463;28;20039;-61
2021/07/25 02:28:08;;;;;;;10.15;6.80;;;;;;;15.31;82.11;97137.97;5102818;28;20826;-60
2021/07/25 02:30:36;;;;;;;11.85;7.75;;;;;;;15.24;82.69;97137.97;5104570;28;20073;-61
2021/07/25 02:33:04;;;;;;;9.70;7.10;;;;;;;15.22;83.01;97129.22;5102863;28;20047;-60
2021/07/25 02:35:31;;;;;;;8.02;6.60;;;;;;;15.24;82.80;97126.81;5102009;28;20540;-61
2021/07/25 02:37:58;;;;;;;10.85;7.30;;;;;;;15.32;82.41;97122.81;5102171;28;20544;-60
2021/07/25 02:40:25;;;;;;;9.95;6.60;;;;;;;15.04;82.43;97083.75;5102262;28;20051;-60
2021/07/25 02:42:52;;;;;;;9.68;6.80;;;;;;;15.35;82.77;97138.75;5102354;28;20051;-60
2021/07/25 02:45:19;;;;;;;10.52;7.43;;;;;;;15.07;83.50;97088.53;5102079;28;20056;-61
2021/07/25 02:47:46;;;;;;;10.95;7.53;;;;;;;14.10;83.89;96953.41;5101773;28;20539;-60
2021/07/25 02:50:12;;;;;;;11.18;7.72;;;;;;;14.91;83.31;97075.00;5102498;28;20043;-60
2021/07/25 02:52:39;;;;;;;9.23;6.65;;;;;;;15.35;83.18;97132.41;5103844;28;20047;-60
2021/07/25 02:55:07;;;;;;;11.57;7.13;;;;;;;14.86;83.46;97080.16;5102154;28;20044;-59
2021/07/25 02:57:33;;;;;;;10.30;7.57;;;;;;;15.34;83.03;97141.94;5102295;28;20061;-60
2021/07/25 03:00:00;;;;;;;11.63;7.18;;;;;;;15.28;82.90;97140.75;5102104;28;20056;-61
2021/07/25 03:02:27;;;;;;;10.65;9.00;;;;;;;14.99;82.31;97151.91;5102191;28;20375;-62
2021/07/25 03:04:55;;;;;;;13.43;10.25;;;;;;;14.87;83.13;97157.06;5102016;28;20058;-60
2021/07/25 03:07:21;;;;;;;12.73;9.52;;;;;;;14.77;84.16;97168.97;5103726;28;20427;-62
2021/07/25 03:09:48;;;;;;;12.40;9.18;;;;;;;14.05;85.23;97057.66;5102203;28;20151;-63
2021/07/25 03:12:15;;;;;;;12.40;9.27;;;;;;;14.68;85.27;97165.78;5103133;28;20047;-60
2021/07/25 03:14:42;;;;;;;12.88;9.18;;;;;;;14.73;85.95;97157.03;5103281;28;20066;-60
2021/07/25 03:17:08;;;;;;;13.13;8.88;;;;;;;14.65;87.09;97144.28;5103591;28;20059;-60
2021/07/25 03:19:35;;;;;;;12.30;9.45;;;;;;;14.37;84.57;97116.31;5103388;28;20610;-59
2021/07/25 03:22:04;;;;;;;15.00;10.45;;;;;;;14.57;84.85;97103.63;5101606;28;20048;-61
2021/07/25 03:24:31;;;;;;;13.82;9.25;;;;;;;14.94;85.44;97138.34;5102575;28;20441;-59
2021/07/25 03:26:58;;;;;;;12.73;7.82;;;;;;;15.14;85.32;97149.94;5101303;28;20177;-60
2021/07/25 03:29:25;;;;;;;13.60;8.30;;;;;;;15.39;83.76;97152.75;5103366;28;20520;-62
2021/07/25 03:31:52;;;;;;;10.38;7.15;;;;;;;15.26;82.32;97110.47;5102844;28;20052;-61
2021/07/25 03:34:19;;;;;;;12.63;7.28;;;;;;;15.52;82.07;97163.13;5101856;28;20055;-61
2021/07/25 03:36:46;;;;;;;11.38;7.82;;;;;;;15.47;81.05;97138.41;5103067;28;20044;-61
2021/07/25 03:39:17;;;;;;;10.82;7.78;;;;;;;15.58;81.42;97147.56;5103376;28;20066;-60
2021/07/25 03:41:44;;;;;;;9.35;7.50;;;;;;;15.17;80.95;97094.09;5102371;28;20058;-61
2021/07/25 03:44:10;;;;;;;11.02;6.82;;;;;;;15.69;80.84;97153.94;5101993;28;20087;-61
2021/07/25 03:46:37;;;;;;;12.07;7.38;;;;;;;15.03;80.81;97031.97;5101555;28;20552;-61
2021/07/25 03:49:06;;;;;;;12.15;7.53;;;;;;;15.77;80.61;97141.56;5102684;28;20056;-61
2021/07/25 03:51:34;;;;;;;11.27;7.32;;;;;;;15.81;79.85;97133.97;5102973;28;20051;-61
2021/07/25 03:54:00;;;;;;;10.95;7.38;;;;;;;15.47;79.78;97101.31;5101954;28;20436;-61
2021/07/25 03:56:27;;;;;;;9.35;6.93;;;;;;;15.91;79.87;97157.50;5103726;28;20514;-61
2021/07/25 03:58:54;;;;;;;9.30;6.47;;;;;;;15.42;79.95;97071.81;5105467;28;20090;-60
2021/07/25 04:01:21;;;;;;;12.93;8.48;;;;;;;16.02;79.63;97161.88;5106108;28;20482;-62
2021/07/25 04:03:48;;;;;;;13.88;9.00;;;;;;;16.19;78.69;97160.22;5105170;28;20052;-61
2021/07/25 04:06:14;;;;;;;15.75;11.93;;;;;;;15.88;78.55;97131.16;5105029;28;20055;-60
2021/07/25 04:08:41;;;;;;;18.85;9.75;;;;;;;16.38;77.56;97165.34;5105256;28;20060;-61
2021/07/25 04:11:08;;;;;;;15.70;8.80;;;;;;;16.48;77.11;97168.13;5106697;28;20557;-61
2021/07/25 04:13:34;;;;;;;15.15;8.00;;;;;;;16.18;77.03;97103.53;5105414;28;20086;-61
2021/07/25 04:16:02;;;;;;;15.10;8.77;;;;;;;16.63;77.20;97162.47;5105330;28;20148;-61
2021/07/25 04:18:28;;;;;;;9.02;6.70;;;;;;;16.81;76.57;97165.97;5106252;28;20054;-63
2021/07/25 04:20:55;;;;;;;11.32;7.18;;;;;;;16.85;75.67;97152.78;5104876;28;20082;-61
2021/07/25 04:23:22;;;;;;;9.98;7.13;;;;;;;16.68;75.18;97148.06;5104914;28;20106;-63
2021/07/25 04:25:48;;;;;;;11.50;6.68;;;;;;;16.96;75.53;97165.47;5105030;28;20043;-61
2021/07/25 04:28:15;;;;;;;9.30;7.30;;;;;;;16.99;75.54;97159.09;5104457;28;20059;-62
2021/07/25 04:30:43;;;;;;;16.73;6.90;;;;;;;17.10;75.14;97164.59;5106046;28;20055;-62
2021/07/25 04:33:10;;;;;;;13.57;6.30;;;;;;;17.11;74.29;97124.19;5105302;28;20055;-62
2021/07/25 04:35:39;;;;;;;14.88;6.35;;;;;;;17.54;73.46;97161.91;5105984;28;20051;-61
2021/07/25 04:38:06;;;;;;;13.30;7.68;;;;;;;17.77;72.54;97164.88;5105839;28;20054;-63
2021/07/25 04:40:33;;;;;;;13.07;7.03;;;;;;;17.59;71.67;97125.81;5105582;28;20074;-61
2021/07/25 04:43:03;;;;;;;10.00;6.57;;;;;;;17.95;71.78;97171.13;5104630;28;20547;-62
2021/07/25 04:45:43;;;;;;;9.15;7.25;;;;;;;17.92;71.18;97124.31;5103921;28;20488;-63
2021/07/25 04:48:40;;;;;;;8.82;6.47;;;;;;;18.35;70.39;97167.50;5104363;28;20441;-62
2021/07/25 04:51:10;;;;;;;8.38;6.10;;;;;;;18.20;70.39;97132.41;5104292;28;20142;-61
2021/07/25 04:53:39;;;;;;;11.05;6.45;;;;;;;18.56;70.12;97160.88;5084422;28;20482;-60
2021/07/25 04:56:12;;;;;;;12.65;6.35;;;;;;;18.73;69.58;97160.63;5105396;28;20144;-61
2021/07/25 04:58:48;;;;;;;9.50;6.90;;;;;;;18.70;68.57;97122.19;5104123;28;20527;-62
2021/07/25 05:01:21;;;;;;;9.27;6.47;;;;;;;18.86;68.21;97135.59;5105341;28;20083;-62
2021/07/25 05:03:49;;;;;;;13.65;8.48;;;;;;;19.21;67.38;97168.78;5103804;28;20081;-62
2021/07/25 05:06:16;;;;;;;16.40;8.23;;;;;;;19.08;66.24;97120.84;5103528;28;20086;-62
2021/07/25 05:08:43;;;;;;;15.40;8.68;;;;;;;18.88;65.29;97083.44;5098567;28;20048;-62
2021/07/25 05:11:20;;;;;;;14.77;8.63;;;;;;;19.62;64.94;97151.75;5104962;28;20120;-63
2021/07/25 05:13:49;;;;;;;12.88;9.20;;;;;;;19.81;64.12;97163.03;5104847;28;20052;-63
2021/07/25 05:16:26;;;;;;;16.65;9.35;;;;;;;19.97;64.30;97159.53;5104920;28;20240;-63
2021/07/25 05:19:19;;;;;;;15.15;9.25;;;;;;;19.67;63.72;97083.78;5103890;28;20065;-62
2021/07/25 05:21:52;;;;;;;10.82;8.10;;;;;;;20.33;63.01;97160.50;5097930;28;20194;-63
2021/07/25 05:24:23;;;;;;;14.18;9.02;;;;;;;20.56;62.48;97171.72;5090320;28;24291;-62
2021/07/25 05:26:52;;;;;;;11.98;7.47;;;;;;;20.84;61.63;97162.66;5104710;28;20084;-61
2021/07/25 05:29:22;;;;;;;15.65;8.05;;;;;;;20.83;60.66;97161.09;5104831;27;20091;-62
2021/07/25 05:31:49;;;;;;;12.23;8.45;;;;;;;20.90;61.74;97161.72;5104626;28;20062;-63
2021/07/25 05:34:16;;;;;;;11.35;7.43;;;;;;;21.13;60.61;97152.41;5103080;28;20473;-63
2021/07/25 05:36:43;;;;;;;15.45;8.60;;;;;;;21.47;59.58;97158.44;5104608;28;20521;-61
2021/07/25 05:39:10;;;;;;;14.45;8.38;;;;;;;21.60;59.26;97158.53;5104961;27;20078;-61
2021/07/25 05:41:37;;;;;;;19.33;7.57;;;;;;;21.84;58.86;97157.97;5104450;28;20081;-63
2021/07/25 05:44:04;;;;;;;11.38;7.40;;;;;;;22.13;57.58;97161.63;5104447;28;20059;-62
2021/07/25 05:46:30;;;;;;;10.45;7.45;;;;;;;20.45;56.84;96853.13;5104409;28;20085;-62
2021/07/25 05:48:57;;;;;;;8.52;7.15;;;;;;;22.64;55.92;97153.38;5102077;28;20075;-62
2021/07/25 05:51:24;;;;;;;11.35;7.03;;;;;;;22.51;54.82;97098.91;5104340;28;20068;-64
2021/07/25 05:53:51;;;;;;;10.55;7.30;;;;;;;23.04;54.80;97165.94;5102800;28;20059;-62
2021/07/25 05:56:17;;;;;;;10.82;7.38;;;;;;;23.04;54.09;97146.16;5103120;28;20546;-63
2021/07/25 05:58:44;;;;;;;11.45;6.72;;;;;;;22.97;53.66;97137.91;5104239;28;20070;-62
2021/07/25 06:01:11;;;;;;;8.82;6.93;;;;;;;23.31;53.71;97178.47;5102128;28;20082;-62
2021/07/25 06:03:37;;;;;;;11.07;8.50;;;;;;;23.47;53.46;97172.66;5102636;28;20047;-62
2021/07/25 06:06:08;;;;;;;16.52;9.35;;;;;;;23.64;52.52;97150.72;5103963;28;20051;-63
2021/07/25 06:08:34;;;;;;;10.18;7.50;;;;;;;23.67;52.60;97161.94;5102606;28;20059;-62
2021/07/25 06:11:01;;;;;;;9.52;6.40;;;;;;;23.70;52.88;97129.91;5102864;28;20142;-63
2021/07/25 06:13:28;;;;;;;14.00;7.00;;;;;;;23.84;51.69;97103.16;5103959;28;20043;-63
2021/07/25 06:15:55;;;;;;;12.32;6.70;;;;;;;24.34;51.33;97156.84;5103380;28;20509;-63
2021/07/25 06:18:21;;;;;;;7.78;5.88;;;;;;;24.30;51.04;97133.50;5101359;28;20569;-63
2021/07/25 06:20:48;;;;;;;9.55;5.95;;;;;;;24.54;49.99;97165.84;5102280;28;20506;-63
2021/07/25 06:23:15;;;;;;;8.73;6.18;;;;;;;24.70;50.18;97162.84;5102224;28;20055;-64
2021/07/25 06:25:42;;;;;;;7.03;6.00;;;;;;;24.83;48.57;97163.56;5102157;28;20051;-61
2021/07/25 06:28:09;;;;;;;9.32;5.72;;;;;;;24.78;47.20;97124.50;5103784;28;20494;-63
2021/07/25 06:30:36;;;;;;;10.35;7.10;;;;;;;25.05;47.37;97160.72;5102193;28;20051;-63
2021/07/25 06:33:03;;;;;;;7.75;6.03;;;;;;;25.24;47.73;97160.34;5102211;28;20051;-62
2021/07/25 06:35:38;;;;;;;6.82;6.10;;;;;;;25.42;47.45;97142.66;5102184;28;20058;-63
2021/07/25 06:38:07;;;;;;;6.70;5.93;;;;;;;25.31;45.81;97106.19;5103796;28;20062;-63
2021/07/25 06:40:35;;;;;;;16.70;11.43;;;;;;;25.99;44.76;97169.50;5103469;28;20089;-62
2021/07/25 06:43:03;;;;;;;9.75;6.57;;;;;;;25.91;43.94;97131.34;5103346;28;20453;-62
2021/07/25 06:45:30;;;;;;;8.48;6.07;;;;;;;26.03;43.37;97127.59;5081421;28;20159;-63
2021/07/25 06:47:57;;;;;;;9.38;6.93;;;;;;;26.36;42.84;97165.53;5083335;28;20166;-61
2021/07/25 06:50:27;;;;;;;9.93;5.82;;;;;;;26.51;41.74;97157.94;5082751;28;20048;-62
2021/07/25 06:52:56;;;;;;;9.32;6.97;;;;;;;26.51;42.09;97161.59;5081154;28;20051;-62
2021/07/25 06:55:28;;;;;;;6.88;5.68;;;;;;;26.53;41.29;97163.94;5081237;28;20518;-61
2021/07/25 06:57:56;;;;;;;8.98;6.90;;;;;;;26.67;40.91;97154.81;5081521;28;20113;-61
2021/07/25 07:00:23;;;;;;;7.60;5.95;;;;;;;26.80;39.82;97152.63;5081523;28;20371;-61
2021/07/25 07:02:54;;;;;;;10.30;6.40;;;;;;;26.76;38.45;97152.00;5081880;28;20058;-62
2021/07/25 07:05:26;;;;;;;9.23;6.13;;;;;;;26.25;38.54;97038.19;5083008;28;20133;-63
2021/07/25 07:07:55;;;;;;;6.13;5.47;;;;;;;26.82;38.11;97155.78;5081419;28;20060;-63
2021/07/25 07:10:28;;;;;;;9.90;6.43;;;;;;;26.59;38.22;97108.84;5082696;28;20522;-63
2021/07/25 07:12:56;;;;;;;9.55;6.13;;;;;;;27.05;38.25;97157.94;5082973;28;20350;-62
2021/07/25 07:15:25;;;;;;;11.38;6.75;;;;;;;26.84;39.16;97150.41;5081304;28;20051;-63
2021/07/25 07:17:53;;;;;;;6.53;5.93;;;;;;;26.34;39.73;97148.16;5081538;28;20102;-63
2021/07/25 07:20:21;;;;;;;12.85;6.38;;;;;;;25.77;39.14;97009.88;5081818;28;20052;-63
2021/07/25 07:23:02;;;;;;;8.25;5.35;;;;;;;26.88;40.04;97159.56;5082813;28;20135;-62
2021/07/25 07:25:38;;;;;;;10.52;6.50;;;;;;;26.44;39.46;97163.97;5080616;28;20063;-62
2021/07/25 07:28:05;;;;;;;13.85;6.65;;;;;;;26.30;39.24;97130.50;5080931;28;20059;-62
2021/07/25 07:30:33;;;;;;;7.32;5.93;;;;;;;26.88;39.60;97162.41;5085010;28;20149;-62
2021/07/25 07:33:15;;;;;;;12.73;5.53;;;;;;;27.26;39.08;97161.84;5086530;28;20062;-63
2021/07/25 07:35:43;;;;;;;7.60;5.60;;;;;;;27.55;38.27;97154.34;5086365;28;20056;-64
2021/07/25 07:38:11;;;;;;;9.98;6.68;;;;;;;26.75;39.74;97161.78;5085313;28;20048;-62
2021/07/25 07:40:40;;;;;;;8.32;6.15;;;;;;;26.17;39.17;97115.63;5085005;28;20062;-64
2021/07/25 07:43:08;;;;;;;8.38;6.38;;;;;;;26.88;38.29;97170.94;5086682;28;20052;-63
2021/07/25 07:45:37;;;;;;;14.30;8.93;;;;;;;27.20;37.87;97170.25;5086501;28;20110;-62
2021/07/25 07:48:04;;;;;;;14.20;8.40;;;;;;;27.19;37.67;97167.91;5086158;28;20064;-63
2021/07/25 07:50:31;;;;;;;16.55;10.80;;;;;;;26.86;38.10;97161.31;5084347;28;20052;-63
2021/07/25 07:52:58;;;;;;;15.18;10.82;;;;;;;27.07;36.80;97149.75;5084693;28;20059;-64
2021/07/25 07:55:26;;;;;;;9.10;7.70;;;;;;;27.22;36.08;97147.78;5084856;28;20131;-63
2021/07/25 07:57:52;;;;;;;8.68;7.30;;;;;;;27.19;36.61;97168.66;5086576;28;20056;-63
2021/07/25 08:00:19;;;;;;;14.20;10.77;;;;;;;27.42;37.61;97159.47;5086309;28;20074;-62
2021/07/25 08:02:46;;;;;;;8.55;6.80;;;;;;;27.73;36.23;97164.88;5084243;28;20058;-63
2021/07/25 08:05:13;;;;;;;6.30;5.78;;;;;;;27.69;35.49;97132.97;5084464;28;20056;-62
2021/07/25 08:07:40;;;;;;;7.50;6.60;;;;;;;27.69;35.98;97148.00;5085832;28;20060;-63
2021/07/25 08:10:08;;;;;;;9.82;6.75;;;;;;;28.14;35.63;97159.16;5086099;28;20123;-64
2021/07/25 08:12:35;;;;;;;11.75;7.75;;;;;;;27.98;36.32;97178.72;5084500;28;20378;-63
2021/07/25 08:15:03;;;;;;;10.57;7.30;;;;;;;28.21;35.38;97172.28;5084710;28;20052;-64
2021/07/25 08:17:30;;;;;;;7.25;6.18;;;;;;;28.25;35.60;97174.94;5084641;28;20134;-62
2021/07/25 08:19:57;;;;;;;8.38;7.00;;;;;;;27.99;35.60;97158.31;5084143;28;20478;-62
2021/07/25 08:22:24;;;;;;;7.13;6.38;;;;;;;27.57;35.35;97131.09;5084380;28;20052;-63
2021/07/25 08:24:51;;;;;;;9.52;6.10;;;;;;;28.09;35.57;97170.41;5085764;28;20060;-63
2021/07/25 08:27:18;;;;;;;9.80;6.57;;;;;;;27.94;35.04;97110.56;5085530;28;20489;-62
2021/07/25 08:29:45;;;;;;;10.32;5.97;;;;;;;28.51;34.57;97164.66;5085452;28;20427;-63
2021/07/25 08:32:12;;;;;;;6.38;5.88;;;;;;;28.27;34.71;97061.25;5083719;28;20411;-62
2021/07/25 08:34:39;;;;;;;10.75;6.57;;;;;;;28.97;35.09;97163.00;5085999;28;20058;-62
2021/07/25 08:37:06;;;;;;;8.00;6.65;;;;;;;28.74;34.13;97103.97;5084172;28;20059;-62
2021/07/25 08:39:33;;;;;;;8.70;6.53;;;;;;;28.76;34.15;97107.09;5085832;28;20135;-62
2021/07/25 08:42:08;;;;;;;8.90;5.93;;;;;;;28.72;33.16;97172.84;5083189;28;20155;-62
2021/07/25 08:44:43;;;;;;;8.57;6.13;;;;;;;28.70;33.63;97166.09;5097200;28;20047;-62
2021/07/25 08:47:26;;;;;;;12.13;6.70;;;;;;;28.60;34.45;97161.72;5104239;28;20498;-62
2021/07/25 08:49:59;;;;;;;9.52;7.45;;;;;;;27.87;35.25;97161.34;5105391;28;20066;-63
2021/07/25 08:52:40;;;;;;;7.00;5.88;;;;;;;27.98;33.95;97099.75;5104239;28;20054;-63
2021/07/25 08:55:13;;;;;;;7.35;6.07;;;;;;;28.49;34.28;97150.09;5104312;28;20078;-63
2021/07/25 08:57:42;;;;;;;7.05;6.18;;;;;;;28.88;33.84;97154.53;5103512;28;20062;-64
2021/07/25 09:00:11;;;;;;;14.70;6.38;;;;;;;29.20;34.09;97156.44;5103755;28;20143;-64
2021/07/25 09:02:39;;;;;;;10.02;6.47;;;;;;;28.95;33.79;97071.41;5105134;28;20048;-61
2021/07/25 09:05:07;;;;;;;14.48;7.57;;;;;;;28.77;31.54;97120.09;5105043;28;20521;-61
2021/07/25 09:07:36;;;;;;;10.60;8.10;;;;;;;28.01;33.07;97098.03;5103490;28;20056;-62
2021/07/25 09:10:05;;;;;;;8.20;6.35;;;;;;;28.14;33.38;97153.47;5105508;28;20163;-62
2021/07/25 09:12:34;;;;;;;10.65;6.80;;;;;;;28.21;32.67;97145.81;5103817;28;20108;-61
2021/07/25 09:15:26;;;;;;;9.68;6.40;;;;;;;28.20;33.34;97147.88;5105070;28;20143;-62
2021/07/25 09:17:55;;;;;;;17.80;9.48;;;;;;;28.43;32.10;97129.19;5104752;28;20123;-62
2021/07/25 09:20:25;;;;;;;9.27;7.50;;;;;;;28.47;31.32;97152.63;5102772;28;20054;-62
2021/07/25 09:22:52;;;;;;;7.28;6.57;;;;;;;28.69;32.07;97158.81;5104858;28;20055;-62
2021/07/25 09:25:25;;;;;;;8.02;6.85;;;;;;;28.34;33.00;97160.63;5105023;28;20408;-62
2021/07/25 09:27:57;;;;;;;6.55;5.63;;;;;;;27.66;33.66;97148.94;5104875;28;20048;-63
2021/07/25 09:30:27;;;;;;;9.77;6.53;;;;;;;28.06;32.52;97152.25;5105065;28;20124;-62
2021/07/25 09:32:54;;;;;;;15.65;6.72;;;;;;;27.92;31.31;97030.50;5104112;28;20055;-62
2021/07/25 09:35:30;;;;;;;9.15;6.60;;;;;;;29.06;31.37;97143.75;5101516;28;20062;-62
2021/07/25 09:38:02;;;;;;;10.65;7.30;;;;;;;29.04;31.20;97149.13;5103099;28;20051;-62
2021/07/25 09:40:37;;;;;;;18.20;8.00;;;;;;;29.31;31.17;97156.63;5102563;28;20043;-62
2021/07/25 09:43:17;;;;;;;10.88;7.63;;;;;;;29.18;30.91;97119.06;5102804;28;20052;-62
2021/07/25 09:45:57;;;;;;;9.32;7.38;;;;;;;29.62;29.39;97148.38;5083170;28;20052;-62
2021/07/25 09:48:35;;;;;;;7.55;6.88;;;;;;;29.81;30.62;97146.91;5081437;28;20056;-63
2021/07/25 09:51:35;;;;;;;7.60;6.80;;;;;;;29.91;30.19;97134.03;5083034;28;20109;-62
2021/07/25 09:54:03;;;;;;;11.60;6.30;;;;;;;28.57;31.21;97105.69;5064611;28;20051;-63
2021/07/25 09:56:31;;;;;;;11.27;8.45;;;;;;;29.11;31.52;97139.41;5081788;28;20054;-62
2021/07/25 09:58:59;;;;;;;7.35;6.57;;;;;;;29.15;29.73;97137.19;5082227;28;20059;-63
2021/07/25 10:01:41;;;;;;;7.22;6.50;;;;;;;29.10;30.65;97092.22;5081963;28;20062;-63
2021/07/25 10:04:12;;;;;;;8.50;6.57;;;;;;;29.81;29.25;97129.75;5081982;28;20086;-62
2021/07/25 10:06:41;;;;;;;9.27;7.47;;;;;;;30.03;28.31;97135.78;5082180;28;20133;-63
2021/07/25 10:09:15;;;;;;;9.85;8.50;;;;;;;29.92;28.69;97131.97;5083946;28;20134;-63
2021/07/25 10:12:03;;;;;;;10.95;6.85;;;;;;;30.21;28.46;97129.84;5082389;28;20056;-63
2021/07/25 10:14:32;;;;;;;6.65;6.05;;;;;;;30.11;28.31;97090.44;5082209;28;20052;-62
2021/07/25 10:17:04;;;;;;;12.00;7.32;;;;;;;29.79;29.09;97103.75;5082012;28;20052;-63
2021/07/25 10:19:41;;;;;;;9.50;6.35;;;;;;;29.42;28.56;97102.59;5081843;28;20055;-65
2021/07/25 10:22:13;;;;;;;10.93;6.25;;;;;;;29.39;28.71;97132.13;5081732;28;20135;-62
2021/07/25 10:24:43;;;;;;;6.50;5.90;;;;;;;29.47;27.75;97128.41;5083155;28;20051;-63
2021/07/25 10:27:14;;;;;;;7.40;6.40;;;;;;;29.44;28.17;97074.34;5082756;28;20139;-66
2021/07/25 10:29:42;;;;;;;11.68;8.27;;;;;;;30.15;28.01;97114.66;5083522;28;20052;-63
2021/07/25 10:32:10;;;;;;;7.57;5.90;;;;;;;29.64;27.46;97139.31;5083277;28;20146;-63
2021/07/25 10:34:39;;;;;;;7.72;6.90;;;;;;;29.87;27.88;97122.06;5082202;28;20054;-62
2021/07/25 10:37:10;;;;;;;7.03;6.43;;;;;;;28.62;29.20;97076.50;5081665;28;20047;-62
2021/07/25 10:39:41;;;;;;;5.93;5.43;;;;;;;28.53;29.26;97074.53;5081984;28;20507;-61
2021/07/25 10:42:08;;;;;;;7.00;6.20;;;;;;;28.54;29.10;97009.72;5082115;28;20051;-61
2021/07/25 10:44:35;;;;;;;7.00;6.30;;;;;;;29.62;28.03;97087.59;5093691;28;20058;-62
2021/07/25 10:47:24;;;;;;;7.22;6.50;;;;;;;30.12;27.72;97101.38;5103816;28;20052;-63
2021/07/25 10:49:59;;;;;;;8.95;7.07;;;;;;;29.28;28.12;97012.06;5103948;28;20051;-62
2021/07/25 10:52:28;;;;;;;6.75;5.75;;;;;;;29.52;27.81;97067.75;5102497;28;20054;-62
2021/07/25 10:54:54;;;;;;;8.25;5.60;;;;;;;28.49;27.92;97018.97;5103472;28;20410;-62
2021/07/25 10:57:21;;;;;;;10.88;6.32;;;;;;;29.30;28.74;97106.56;5103533;28;20565;-63
2021/07/25 10:59:50;;;;;;;6.63;5.97;;;;;;;29.23;27.34;97061.28;5103609;28;20063;-62
2021/07/25 11:02:24;;;;;;;8.95;5.10;;;;;;;29.14;29.11;97107.06;5102091;28;20062;-61
2021/07/25 11:04:51;;;;;;;16.40;9.88;;;;;;;29.30;29.57;97106.56;5105218;28;20047;-61
2021/07/25 11:07:24;;;;;;;9.65;6.88;;;;;;;29.37;29.20;97109.03;5106169;28;20048;-62
2021/07/25 11:09:56;;;;;;;7.70;6.35;;;;;;;29.50;28.88;97098.84;5105612;28;20557;-61
2021/07/25 11:12:23;;;;;;;7.97;5.72;;;;;;;29.43;27.50;97092.78;5106840;28;20142;-62
2021/07/25 11:15:01;;;;;;;6.15;5.65;;;;;;;29.16;27.95;97095.94;5092881;28;20469;-61
2021/07/25 11:17:46;;;;;;;9.05;5.82;;;;;;;29.39;28.29;97106.44;5085444;28;20062;-61
2021/07/25 11:20:36;;;;;;;11.77;8.63;;;;;;;29.95;28.19;97106.06;5087469;28;20044;-62
2021/07/25 11:23:20;;;;;;;7.38;5.90;;;;;;;29.73;26.35;97005.78;5085776;28;20074;-63
2021/07/25 11:25:48;;;;;;;6.55;5.75;;;;;;;30.27;26.04;97067.03;5085375;28;20087;-61
2021/07/25 11:28:44;;;;;;;8.55;5.80;;;;;;;29.55;27.44;97088.78;5086521;28;20060;-60
2021/07/25 11:31:15;;;;;;;6.85;6.15;;;;;;;30.37;27.36;97097.81;5084944;28;20060;-61
2021/07/25 11:33:44;;;;;;;8.68;6.68;;;;;;;30.90;26.55;97088.84;5086340;28;20510;-60
2021/07/25 11:36:12;;;;;;;6.15;5.60;;;;;;;31.12;26.14;97094.78;5086286;28;20151;-62
2021/07/25 11:38:40;;;;;;;8.02;6.10;;;;;;;30.17;26.34;97059.84;5085114;28;20056;-60
2021/07/25 11:41:08;;;;;;;7.85;5.18;;;;;;;30.18;26.68;97090.00;5086441;28;20056;-61